Time;durP1;ratioP1;P1;durP2;ratioP2;P2;SDS_P1;SDS_P2;PMS_P1;PMS_P2;Temp;Humidity;BMP_temperature;BMP_pressure;BME280_temperature;BME280_humidity;BME280_pressure;Samples;Min_cycle;Max_cycle;Signal;HPM_P1;HPM_P2
2022/09/09 00:03:41;;;;;;;7.85;5.90;;;;;;;;;;10052129;28;20063;-70
2022/09/09 00:08:57;;;;;;;12.15;6.22;;;;;;;;;;10046565;28;20054;-75
2022/09/09 00:13:53;;;;;;;10.70;6.45;;;;;;;;;;10050524;28;20115;-74
2022/09/09 00:19:00;;;;;;;10.80;6.93;;;;;;;;;;10028439;28;20460;-74
2022/09/09 00:23:55;;;;;;;14.85;7.38;;;;;;;;;;10043902;28;20096;-74
2022/09/09 00:29:07;;;;;;;9.02;7.07;;;;;;;;;;10030776;28;20085;-75
2022/09/09 00:34:21;;;;;;;10.23;6.72;;;;;;;;;;10032952;28;20041;-72
2022/09/09 00:39:32;;;;;;;10.48;6.05;;;;;;;;;;10012027;28;20408;-73
2022/09/09 00:44:37;;;;;;;14.98;7.78;;;;;;;;;;10056217;28;20053;-73
2022/09/09 00:49:40;;;;;;;15.40;7.18;;;;;;;;;;10041504;28;20413;-73
2022/09/09 00:54:54;;;;;;;8.10;7.25;;;;;;;;;;10029658;28;20049;-71
2022/09/09 00:59:51;;;;;;;8.10;5.75;;;;;;;;;;10022963;28;20497;-71
2022/09/09 01:04:44;;;;;;;9.35;4.68;;;;;;;;;;10049177;28;20091;-71
2022/09/09 01:09:56;;;;;;;4.82;3.47;;;;;;;;;;10020385;28;20976;-73
2022/09/09 01:14:53;;;;;;;3.83;3.40;;;;;;;;;;10027832;28;20053;-74
2022/09/09 01:19:49;;;;;;;6.75;3.30;;;;;;;;;;10058505;28;20057;-76
2022/09/09 01:25:31;;;;;;;3.50;2.75;;;;;;;;;;10033638;28;20072;-76
2022/09/09 01:30:41;;;;;;;5.70;2.75;;;;;;;;;;9946467;28;20053;-76
2022/09/09 01:35:54;;;;;;;5.15;2.70;;;;;;;;;;9993429;28;20054;-77
2022/09/09 01:40:52;;;;;;;7.35;2.83;;;;;;;;;;10010633;28;20136;-77
2022/09/09 01:45:52;;;;;;;4.78;2.83;;;;;;;;;;9989444;28;20463;-76
2022/09/09 01:50:46;;;;;;;4.70;2.88;;;;;;;;;;10013973;28;20136;-76
2022/09/09 01:55:43;;;;;;;5.13;4.03;;;;;;;;;;10009474;28;20140;-76
2022/09/09 02:00:46;;;;;;;6.03;4.57;;;;;;;;;;9994898;28;20050;-77
2022/09/09 02:05:49;;;;;;;12.25;6.63;;;;;;;;;;10004015;28;20054;-77
2022/09/09 02:11:15;;;;;;;8.07;5.07;;;;;;;;;;10000216;28;20124;-78
2022/09/09 02:16:39;;;;;;;7.38;5.22;;;;;;;;;;9995776;28;20457;-77
2022/09/09 02:21:35;;;;;;;10.75;4.40;;;;;;;;;;9980842;28;20496;-76
2022/09/09 02:26:28;;;;;;;9.95;5.05;;;;;;;;;;10009398;28;20046;-76
2022/09/09 02:31:28;;;;;;;7.40;3.70;;;;;;;;;;10008872;28;20058;-76
2022/09/09 02:36:30;;;;;;;14.07;3.60;;;;;;;;;;10000549;28;20454;-74
2022/09/09 02:41:28;;;;;;;5.97;3.47;;;;;;;;;;9990286;28;20429;-69
2022/09/09 02:46:35;;;;;;;7.47;4.15;;;;;;;;;;10009991;28;20112;-71
2022/09/09 02:51:37;;;;;;;6.53;3.72;;;;;;;;;;10005025;28;20081;-70
2022/09/09 02:56:33;;;;;;;5.25;3.38;;;;;;;;;;10007105;28;20038;-69
2022/09/09 03:01:28;;;;;;;6.22;4.45;;;;;;;;;;9991511;28;20057;-70
2022/09/09 03:06:22;;;;;;;8.77;4.05;;;;;;;;;;10013541;28;20141;-73
2022/09/09 03:11:22;;;;;;;8.18;3.58;;;;;;;;;;10012439;28;20058;-72
2022/09/09 03:16:16;;;;;;;9.68;3.15;;;;;;;;;;10015902;28;20161;-74
2022/09/09 03:21:14;;;;;;;6.35;3.58;;;;;;;;;;10010597;28;20050;-76
2022/09/09 03:26:08;;;;;;;8.60;3.78;;;;;;;;;;10006863;28;20046;-73
2022/09/09 03:31:10;;;;;;;9.15;3.72;;;;;;;;;;10017678;28;20061;-71
2022/09/09 03:36:07;;;;;;;7.43;4.55;;;;;;;;;;10012563;28;20063;-72
2022/09/09 03:41:01;;;;;;;4.95;4.00;;;;;;;;;;10005006;28;20049;-68
2022/09/09 03:45:58;;;;;;;5.00;4.35;;;;;;;;;;10015865;28;20042;-69
2022/09/09 03:50:55;;;;;;;5.68;3.88;;;;;;;;;;10007089;28;20096;-69
2022/09/09 03:55:54;;;;;;;4.85;3.60;;;;;;;;;;10016780;28;20453;-69
2022/09/09 04:00:57;;;;;;;6.15;4.07;;;;;;;;;;10008118;28;20054;-69
2022/09/09 04:05:53;;;;;;;5.22;3.95;;;;;;;;;;10010021;28;20054;-70
2022/09/09 04:10:51;;;;;;;9.63;3.78;;;;;;;;;;10014934;28;20046;-69
2022/09/09 04:15:53;;;;;;;7.25;4.85;;;;;;;;;;10013229;28;20050;-69
2022/09/09 04:20:48;;;;;;;4.53;2.63;;;;;;;;;;10010969;28;20058;-69
2022/09/09 04:25:47;;;;;;;5.80;2.75;;;;;;;;;;10014667;28;20140;-68
2022/09/09 04:30:41;;;;;;;4.38;2.50;;;;;;;;;;10004397;28;20053;-70
2022/09/09 04:35:35;;;;;;;10.13;2.20;;;;;;;;;;9992268;28;20046;-69
2022/09/09 04:40:30;;;;;;;3.38;1.95;;;;;;;;;;9994222;28;20064;-69
2022/09/09 04:45:23;;;;;;;3.67;1.77;;;;;;;;;;10009146;28;20050;-69
2022/09/09 04:50:18;;;;;;;4.30;1.90;;;;;;;;;;10008820;28;20042;-69
2022/09/09 04:55:13;;;;;;;3.80;1.73;;;;;;;;;;10010200;28;20046;-69
2022/09/09 05:00:13;;;;;;;2.88;1.48;;;;;;;;;;10013266;28;20050;-69
2022/09/09 05:05:08;;;;;;;3.55;1.88;;;;;;;;;;10014485;28;20504;-69
2022/09/09 05:10:05;;;;;;;3.83;2.20;;;;;;;;;;10013802;28;20073;-72
2022/09/09 05:14:59;;;;;;;5.65;2.10;;;;;;;;;;10019616;28;20053;-73
2022/09/09 05:19:53;;;;;;;3.40;3.03;;;;;;;;;;10021079;28;20061;-71
2022/09/09 05:24:48;;;;;;;9.90;2.63;;;;;;;;;;10010437;28;20042;-69
2022/09/09 05:29:44;;;;;;;8.43;3.03;;;;;;;;;;10030166;28;20559;-69
2022/09/09 05:34:39;;;;;;;7.00;3.72;;;;;;;;;;10017371;28;20052;-67
2022/09/09 05:39:33;;;;;;;13.70;5.50;;;;;;;;;;10029021;28;20136;-68
2022/09/09 05:44:29;;;;;;;4.88;3.17;;;;;;;;;;10035128;28;20073;-67
2022/09/09 05:49:24;;;;;;;10.23;5.35;;;;;;;;;;10016795;28;20048;-67
2022/09/09 05:54:17;;;;;;;9.73;3.92;;;;;;;;;;10034579;28;20057;-65
2022/09/09 05:59:14;;;;;;;8.30;4.18;;;;;;;;;;10027462;28;20060;-65
2022/09/09 06:04:08;;;;;;;7.72;4.15;;;;;;;;;;10043242;28;20041;-66
2022/09/09 06:09:09;;;;;;;6.82;4.28;;;;;;;;;;10028539;28;20049;-65
2022/09/09 06:14:04;;;;;;;7.32;3.60;;;;;;;;;;10027488;28;20144;-64
2022/09/09 06:18:59;;;;;;;11.23;3.70;;;;;;;;;;10037050;28;20492;-65
2022/09/09 06:23:53;;;;;;;10.32;3.78;;;;;;;;;;10042605;28;20151;-64
2022/09/09 06:28:52;;;;;;;;;;;;;;;;;;10041418;28;20046;-64
2022/09/09 06:33:47;;;;;;;17.13;5.78;;;;;;;;;;10038834;28;19963;-64
2022/09/09 06:38:43;;;;;;;22.95;10.13;;;;;;;;;;10033248;28;20145;-66
2022/09/09 06:43:38;;;;;;;17.10;10.23;;;;;;;;;;10031168;28;20053;-66
2022/09/09 06:48:32;;;;;;;21.45;12.65;;;;;;;;;;10028095;28;20049;-64
2022/09/09 06:53:27;;;;;;;20.05;11.40;;;;;;;;;;10036189;28;20053;-64
2022/09/09 06:58:23;;;;;;;26.15;12.98;;;;;;;;;;10041505;28;20100;-64
2022/09/09 07:03:18;;;;;;;21.50;11.05;;;;;;;;;;10042351;28;20083;-64
2022/09/09 07:08:12;;;;;;;15.93;8.60;;;;;;;;;;10041310;28;20045;-64
2022/09/09 07:13:05;;;;;;;10.30;7.07;;;;;;;;;;10035994;28;20058;-64
2022/09/09 07:18:01;;;;;;;11.70;5.18;;;;;;;;;;10036811;28;20053;-65
2022/09/09 07:22:56;;;;;;;8.40;5.03;;;;;;;;;;10040782;28;20049;-65
2022/09/09 07:27:50;;;;;;;9.52;4.75;;;;;;;;;;10040775;28;20053;-66
2022/09/09 07:32:45;;;;;;;21.20;5.70;;;;;;;;;;10037907;28;20526;-65
2022/09/09 07:37:39;;;;;;;6.22;3.38;;;;;;;;;;10054918;28;20473;-65
2022/09/09 07:42:35;;;;;;;4.95;3.15;;;;;;;;;;10021649;28;20503;-65
2022/09/09 07:47:31;;;;;;;;;;;;;;;;;;10049199;28;20072;-65
2022/09/09 07:52:25;;;;;;;11.95;6.13;;;;;;;;;;10030402;28;20295;-64
2022/09/09 07:57:21;;;;;;;12.23;7.13;;;;;;;;;;10034804;28;20096;-65
2022/09/09 08:02:16;;;;;;;18.88;7.85;;;;;;;;;;10034089;28;20137;-65
2022/09/09 08:07:17;;;;;;;13.50;9.73;;;;;;;;;;10057836;28;20500;-65
2022/09/09 08:12:16;;;;;;;19.60;10.98;;;;;;;;;;10033119;28;20050;-65
2022/09/09 08:17:10;;;;;;;19.67;12.93;;;;;;;;;;10041620;28;20093;-65
2022/09/09 08:22:04;;;;;;;19.38;12.73;;;;;;;;;;10057343;28;20045;-65
2022/09/09 08:26:59;;;;;;;19.63;13.65;;;;;;;;;;10036369;28;20048;-65
2022/09/09 08:31:57;;;;;;;23.02;15.27;;;;;;;;;;10049253;28;20119;-65
2022/09/09 08:36:52;;;;;;;19.88;12.27;;;;;;;;;;10052836;28;20500;-65
2022/09/09 08:42:00;;;;;;;23.60;14.48;;;;;;;;;;10030651;28;20128;-66
2022/09/09 08:47:30;;;;;;;18.50;11.02;;;;;;;;;;10021602;28;20390;-66
2022/09/09 08:52:31;;;;;;;23.67;11.88;;;;;;;;;;10025611;28;20045;-66
2022/09/09 08:57:28;;;;;;;;;;;;;;;;;;10043550;28;20041;-65
2022/09/09 09:02:59;;;;;;;16.83;11.97;;;;;;;;;;10017392;28;19927;-66
2022/09/09 09:08:10;;;;;;;15.93;10.70;;;;;;;;;;10038089;28;20103;-66
2022/09/09 09:13:04;;;;;;;15.55;11.30;;;;;;;;;;10033698;28;20087;-66
2022/09/09 09:17:58;;;;;;;18.25;12.95;;;;;;;;;;10023715;28;20140;-65
2022/09/09 09:22:53;;;;;;;19.75;12.75;;;;;;;;;;10048998;28;20057;-65
2022/09/09 09:28:17;;;;;;;20.60;15.23;;;;;;;;;;10035832;28;20504;-66
2022/09/09 09:33:18;;;;;;;23.60;16.73;;;;;;;;;;10035337;28;20045;-66
2022/09/09 09:38:21;;;;;;;20.38;14.57;;;;;;;;;;10024248;28;20089;-66
2022/09/09 09:43:37;;;;;;;16.65;11.27;;;;;;;;;;10023497;28;20488;-66
2022/09/09 09:48:36;;;;;;;20.52;11.52;;;;;;;;;;10021192;28;20468;-66
2022/09/09 09:53:35;;;;;;;12.90;9.40;;;;;;;;;;10035335;28;20052;-66
2022/09/09 09:58:51;;;;;;;13.70;7.90;;;;;;;;;;10054175;28;20500;-66
2022/09/09 10:03:53;;;;;;;8.85;5.18;;;;;;;;;;10025176;28;20485;-66
2022/09/09 10:08:48;;;;;;;7.70;4.30;;;;;;;;;;10034157;28;20095;-65
2022/09/09 10:13:41;;;;;;;6.72;3.15;;;;;;;;;;10057827;28;20053;-66
2022/09/09 10:18:52;;;;;;;9.55;3.78;;;;;;;;;;10052289;28;20045;-66
2022/09/09 10:24:09;;;;;;;7.78;2.95;;;;;;;;;;10040434;28;20049;-66
2022/09/09 10:29:21;;;;;;;9.98;4.47;;;;;;;;;;10058791;28;20108;-66
2022/09/09 10:34:35;;;;;;;6.10;3.22;;;;;;;;;;10048534;28;20056;-65
2022/09/09 10:39:42;;;;;;;5.78;3.70;;;;;;;;;;10066676;28;20064;-66
2022/09/09 10:44:51;;;;;;;7.78;3.22;;;;;;;;;;10050508;28;20397;-66
2022/09/09 10:50:21;;;;;;;6.63;4.05;;;;;;;;;;10050442;28;20041;-65
2022/09/09 10:55:26;;;;;;;7.25;2.85;;;;;;;;;;10055046;28;20096;-66
2022/09/09 11:00:45;;;;;;;10.57;3.92;;;;;;;;;;10035701;28;20045;-65
2022/09/09 11:05:43;;;;;;;5.45;3.08;;;;;;;;;;10016786;28;20042;-62
2022/09/09 11:10:48;;;;;;;10.07;2.75;;;;;;;;;;10044840;28;20048;-62
2022/09/09 11:15:44;;;;;;;10.55;2.38;;;;;;;;;;10030789;28;20062;-62
2022/09/09 11:20:39;;;;;;;6.70;2.42;;;;;;;;;;10024835;28;20053;-62
2022/09/09 11:25:37;;;;;;;7.57;2.00;;;;;;;;;;10043079;28;20053;-62
2022/09/09 11:30:30;;;;;;;3.67;1.50;;;;;;;;;;10032086;28;20058;-61
2022/09/09 11:36:05;;;;;;;4.38;1.20;;;;;;;;;;10071743;28;20416;-62
2022/09/09 11:41:02;;;;;;;4.00;1.38;;;;;;;;;;10072525;28;20046;-62
2022/09/09 11:45:58;;;;;;;9.23;1.55;;;;;;;;;;10045214;28;20057;-69
2022/09/09 11:51:19;;;;;;;4.65;1.27;;;;;;;;;;10053073;28;20042;-68
2022/09/09 11:56:14;;;;;;;6.85;1.40;;;;;;;;;;10043833;28;20580;-68
2022/09/09 12:01:38;;;;;;;5.75;1.45;;;;;;;;;;10040844;28;20065;-68
2022/09/09 12:06:33;;;;;;;11.35;1.75;;;;;;;;;;10038917;28;20490;-67
2022/09/09 12:11:28;;;;;;;5.93;2.50;;;;;;;;;;10044465;28;20050;-68
2022/09/09 12:16:38;;;;;;;7.60;2.65;;;;;;;;;;10034469;28;20057;-68
2022/09/09 12:21:44;;;;;;;7.03;2.50;;;;;;;;;;10030507;28;20432;-68
2022/09/09 12:26:46;;;;;;;6.95;2.35;;;;;;;;;;10060080;28;20073;-69
2022/09/09 12:32:11;;;;;;;5.40;1.85;;;;;;;;;;10060524;28;20061;-69
2022/09/09 12:37:22;;;;;;;3.85;1.83;;;;;;;;;;10069921;28;20053;-69
2022/09/09 12:42:20;;;;;;;6.13;1.55;;;;;;;;;;10058684;28;20550;-65
2022/09/09 12:47:14;;;;;;;8.52;2.00;;;;;;;;;;10044368;28;20107;-65
2022/09/09 12:52:14;;;;;;;5.22;2.10;;;;;;;;;;10038981;28;20073;-64
2022/09/09 12:57:11;;;;;;;4.72;1.60;;;;;;;;;;10051228;28;20107;-65
2022/09/09 13:02:20;;;;;;;6.03;1.52;;;;;;;;;;10048027;28;20389;-65
2022/09/09 13:07:13;;;;;;;3.28;0.90;;;;;;;;;;10048560;28;20085;-65
2022/09/09 13:12:13;;;;;;;4.63;1.00;;;;;;;;;;10059780;28;20058;-65
2022/09/09 13:17:15;;;;;;;3.10;1.00;;;;;;;;;;10044695;28;20390;-64
2022/09/09 13:22:30;;;;;;;2.95;1.60;;;;;;;;;;10034692;28;20460;-64
2022/09/09 13:27:33;;;;;;;3.40;1.10;;;;;;;;;;10056310;28;20073;-65
2022/09/09 13:32:28;;;;;;;2.38;1.10;;;;;;;;;;10041640;28;20062;-63
2022/09/09 13:37:37;;;;;;;6.85;1.48;;;;;;;;;;10052378;28;20062;-66
2022/09/09 13:42:31;;;;;;;4.93;1.60;;;;;;;;;;10064345;28;20045;-65
2022/09/09 13:47:34;;;;;;;3.50;1.40;;;;;;;;;;10053618;28;20512;-63
2022/09/09 13:52:31;;;;;;;7.22;1.60;;;;;;;;;;10040041;28;20077;-66
2022/09/09 13:57:25;;;;;;;8.25;1.88;;;;;;;;;;10045710;28;20065;-63
2022/09/09 14:02:24;;;;;;;5.22;1.40;;;;;;;;;;10039962;28;20084;-63
2022/09/09 14:07:18;;;;;;;3.47;1.50;;;;;;;;;;10034611;28;20053;-64
2022/09/09 14:12:13;;;;;;;5.28;1.80;;;;;;;;;;10053659;28;20059;-63
2022/09/09 14:17:07;;;;;;;3.78;1.73;;;;;;;;;;10037058;28;20429;-62
2022/09/09 14:22:01;;;;;;;5.15;1.42;;;;;;;;;;10063854;28;20496;-63
2022/09/09 14:26:56;;;;;;;7.93;2.15;;;;;;;;;;10054672;28;20053;-64
2022/09/09 14:31:50;;;;;;;9.98;2.47;;;;;;;;;;10053264;28;20153;-64
2022/09/09 14:36:46;;;;;;;5.38;2.13;;;;;;;;;;10060025;28;20400;-64
2022/09/09 14:41:40;;;;;;;5.70;1.90;;;;;;;;;;10067520;28;20076;-65
2022/09/09 14:46:34;;;;;;;8.65;2.00;;;;;;;;;;10055480;28;20477;-65
2022/09/09 14:51:28;;;;;;;5.18;1.85;;;;;;;;;;10044350;28;20053;-64
2022/09/09 14:56:26;;;;;;;4.40;1.45;;;;;;;;;;10038131;28;20068;-64
2022/09/09 15:01:24;;;;;;;7.40;2.03;;;;;;;;;;10058757;28;20057;-64
2022/09/09 15:06:18;;;;;;;4.00;2.00;;;;;;;;;;10063574;28;20065;-62
2022/09/09 15:11:13;;;;;;;3.35;1.80;;;;;;;;;;10061401;28;20049;-64
2022/09/09 15:16:27;;;;;;;4.68;1.40;;;;;;;;;;10056493;28;20053;-63
2022/09/09 15:21:23;;;;;;;5.43;1.40;;;;;;;;;;10060521;28;20479;-77
2022/09/09 15:26:18;;;;;;;6.90;2.50;;;;;;;;;;10062599;28;20069;-63
2022/09/09 15:31:14;;;;;;;4.72;1.30;;;;;;;;;;10066037;28;20049;-63
2022/09/09 15:36:19;;;;;;;6.07;1.43;;;;;;;;;;10060556;28;20060;-67
2022/09/09 15:41:14;;;;;;;5.72;2.10;;;;;;;;;;10065404;28;20057;-67
2022/09/09 15:46:16;;;;;;;5.30;2.00;;;;;;;;;;10064244;28;20389;-68
2022/09/09 15:51:11;;;;;;;4.50;1.90;;;;;;;;;;10058994;28;20397;-69
2022/09/09 15:56:27;;;;;;;5.78;1.85;;;;;;;;;;10044205;28;20050;-68
2022/09/09 16:01:20;;;;;;;10.07;2.00;;;;;;;;;;10047362;28;20112;-68
2022/09/09 16:06:16;;;;;;;7.07;2.00;;;;;;;;;;10071423;28;20050;-69
2022/09/09 16:11:19;;;;;;;5.50;1.73;;;;;;;;;;10069047;28;20464;-68
2022/09/09 16:16:14;;;;;;;8.80;1.73;;;;;;;;;;10067460;28;20090;-68
2022/09/09 16:21:18;;;;;;;3.83;1.60;;;;;;;;;;10043299;28;20509;-65
2022/09/09 16:26:14;;;;;;;6.88;1.63;;;;;;;;;;10051033;28;20555;-68
2022/09/09 16:31:09;;;;;;;3.35;1.98;;;;;;;;;;10061239;28;20057;-68
2022/09/09 16:36:08;;;;;;;5.68;1.95;;;;;;;;;;10063608;28;20049;-65
2022/09/09 16:41:04;;;;;;;3.90;2.17;;;;;;;;;;10070645;28;20152;-67
2022/09/09 16:46:00;;;;;;;4.82;2.03;;;;;;;;;;10048938;28;20038;-66
2022/09/09 16:50:53;;;;;;;7.65;2.13;;;;;;;;;;10047272;28;20041;-68
2022/09/09 16:55:48;;;;;;;4.15;2.53;;;;;;;;;;10040024;28;20089;-68
2022/09/09 17:00:42;;;;;;;6.85;2.70;;;;;;;;;;10067046;28;20133;-69
2022/09/09 17:05:41;;;;;;;6.18;2.00;;;;;;;;;;10061863;28;20054;-66
2022/09/09 17:10:36;;;;;;;3.47;1.50;;;;;;;;;;10047635;28;20476;-65
2022/09/09 17:15:30;;;;;;;5.40;1.63;;;;;;;;;;10051628;28;20508;-68
2022/09/09 17:20:24;;;;;;;2.45;1.42;;;;;;;;;;10057769;28;20049;-67
2022/09/09 17:25:18;;;;;;;5.22;1.38;;;;;;;;;;10054791;28;20512;-65
2022/09/09 17:30:13;;;;;;;5.00;1.33;;;;;;;;;;10061056;28;20057;-66
2022/09/09 17:35:08;;;;;;;3.30;1.27;;;;;;;;;;10052894;28;20057;-68
2022/09/09 17:40:03;;;;;;;3.08;1.55;;;;;;;;;;10055514;28;20468;-68
2022/09/09 17:44:57;;;;;;;4.53;1.90;;;;;;;;;;10057289;28;20132;-68
2022/09/09 17:49:51;;;;;;;2.83;1.90;;;;;;;;;;10055334;28;20079;-68
2022/09/09 17:54:45;;;;;;;7.88;2.05;;;;;;;;;;10057875;28;20508;-68
2022/09/09 17:59:40;;;;;;;5.18;2.13;;;;;;;;;;10048522;28;20049;-67
2022/09/09 18:04:35;;;;;;;11.02;2.92;;;;;;;;;;10045021;28;20562;-67
2022/09/09 18:09:31;;;;;;;4.55;2.10;;;;;;;;;;10053579;28;20455;-68
2022/09/09 18:14:30;;;;;;;10.65;2.20;;;;;;;;;;10057827;28;20046;-67
2022/09/09 18:19:24;;;;;;;4.80;1.98;;;;;;;;;;10051064;28;20037;-68
2022/09/09 18:24:19;;;;;;;3.72;2.38;;;;;;;;;;10050513;28;20053;-68
2022/09/09 18:29:19;;;;;;;6.53;2.58;;;;;;;;;;10060903;28;20492;-67
2022/09/09 18:34:14;;;;;;;4.53;2.55;;;;;;;;;;10044421;28;20084;-67
2022/09/09 18:39:09;;;;;;;6.45;2.00;;;;;;;;;;10034962;28;20096;-67
2022/09/09 18:44:08;;;;;;;7.13;2.40;;;;;;;;;;10063158;28;20427;-67
2022/09/09 18:49:02;;;;;;;7.18;2.20;;;;;;;;;;10036472;28;20501;-66
2022/09/09 18:53:58;;;;;;;6.47;2.78;;;;;;;;;;10041635;28;20056;-66
2022/09/09 18:58:54;;;;;;;4.78;2.10;;;;;;;;;;10039072;28;20046;-67
2022/09/09 19:03:48;;;;;;;10.00;2.80;;;;;;;;;;10065546;28;20064;-67
2022/09/09 19:08:44;;;;;;;6.18;2.13;;;;;;;;;;10067885;28;20056;-72
2022/09/09 19:13:38;;;;;;;11.43;2.65;;;;;;;;;;10046066;28;20057;-69
2022/09/09 19:18:32;;;;;;;7.32;3.90;;;;;;;;;;10053825;28;20045;-72
2022/09/09 19:23:30;;;;;;;7.53;3.80;;;;;;;;;;10057357;28;20057;-79
2022/09/09 19:28:24;;;;;;;11.10;3.13;;;;;;;;;;10045129;28;20057;-67
2022/09/09 19:33:19;;;;;;;5.13;3.05;;;;;;;;;;10042531;28;20073;-66
2022/09/09 19:38:13;;;;;;;8.10;2.83;;;;;;;;;;10044820;28;20073;-74
2022/09/09 19:43:06;;;;;;;3.88;3.05;;;;;;;;;;10051515;28;20050;-65
2022/09/09 19:48:00;;;;;;;4.35;2.67;;;;;;;;;;10045216;28;20053;-67
2022/09/09 19:52:54;;;;;;;14.25;5.30;;;;;;;;;;10033754;28;20046;-66
2022/09/09 19:57:48;;;;;;;9.32;3.05;;;;;;;;;;10032383;28;20050;-65
2022/09/09 20:02:43;;;;;;;7.20;3.28;;;;;;;;;;10031433;28;20133;-70
2022/09/09 20:07:57;;;;;;;7.53;3.67;;;;;;;;;;10038458;28;20081;-72
2022/09/09 20:12:51;;;;;;;9.23;4.03;;;;;;;;;;10043715;28;20056;-75
2022/09/09 20:17:44;;;;;;;6.72;3.60;;;;;;;;;;10061616;28;20050;-67
2022/09/09 20:22:38;;;;;;;4.00;3.17;;;;;;;;;;10049476;28;20582;-67
2022/09/09 20:27:33;;;;;;;5.35;3.35;;;;;;;;;;10019700;28;20077;-69
2022/09/09 20:32:28;;;;;;;9.50;3.40;;;;;;;;;;10032269;28;20053;-68
2022/09/09 20:37:22;;;;;;;4.43;2.80;;;;;;;;;;10021930;28;20049;-74
2022/09/09 20:42:18;;;;;;;9.05;3.58;;;;;;;;;;10030379;28;20362;-72
2022/09/09 20:47:12;;;;;;;4.70;2.78;;;;;;;;;;10023215;28;20064;-75
2022/09/09 20:52:09;;;;;;;7.78;3.97;;;;;;;;;;10023830;28;20093;-75
2022/09/09 20:57:05;;;;;;;3.28;2.15;;;;;;;;;;10027786;28;20101;-68
2022/09/09 21:02:01;;;;;;;4.45;1.80;;;;;;;;;;10029363;28;20099;-65
2022/09/09 21:06:55;;;;;;;4.00;1.98;;;;;;;;;;10026862;28;20447;-69
2022/09/09 21:11:48;;;;;;;9.27;3.35;;;;;;;;;;10026058;28;20566;-65
2022/09/09 21:16:42;;;;;;;4.50;2.30;;;;;;;;;;10026139;28;20705;-70
2022/09/09 21:21:36;;;;;;;4.25;2.05;;;;;;;;;;10033617;28;20496;-70
2022/09/09 21:26:36;;;;;;;5.20;2.60;;;;;;;;;;10025752;28;20046;-60
2022/09/09 21:31:30;;;;;;;;;;;;;;;;;;10019845;28;20517;-62
2022/09/09 21:36:26;;;;;;;2.80;2.00;;;;;;;;;;10033525;28;20082;-60
2022/09/09 21:41:21;;;;;;;6.13;2.28;;;;;;;;;;10050775;28;20049;-60
2022/09/09 21:46:16;;;;;;;5.28;2.38;;;;;;;;;;10027268;28;20072;-60
2022/09/09 21:51:30;;;;;;;4.20;2.40;;;;;;;;;;10023889;28;20417;-60
2022/09/09 21:56:25;;;;;;;7.70;2.25;;;;;;;;;;10026899;28;20137;-60
2022/09/09 22:01:23;;;;;;;5.18;2.80;;;;;;;;;;10038324;28;20057;-59
2022/09/09 22:06:18;;;;;;;8.65;3.13;;;;;;;;;;10033585;28;20115;-60
2022/09/09 22:11:17;;;;;;;7.53;2.85;;;;;;;;;;10030934;28;20049;-60
2022/09/09 22:16:13;;;;;;;7.07;2.42;;;;;;;;;;10033181;28;20050;-60
2022/09/09 22:21:10;;;;;;;6.97;2.33;;;;;;;;;;10036419;28;20056;-60
2022/09/09 22:26:05;;;;;;;7.70;2.72;;;;;;;;;;10039692;28;20048;-70
2022/09/09 22:30:59;;;;;;;8.85;2.65;;;;;;;;;;10031937;28;20508;-71
2022/09/09 22:35:55;;;;;;;7.85;2.45;;;;;;;;;;10032628;28;20053;-71
2022/09/09 22:40:52;;;;;;;8.68;3.35;;;;;;;;;;10030906;28;20054;-71
2022/09/09 22:45:47;;;;;;;5.22;2.05;;;;;;;;;;10030599;28;20521;-71
2022/09/09 22:50:41;;;;;;;8.52;4.13;;;;;;;;;;10037739;28;20436;-71
2022/09/09 22:55:35;;;;;;;11.18;6.00;;;;;;;;;;10054091;28;20079;-67
2022/09/09 23:00:29;;;;;;;11.40;7.13;;;;;;;;;;10053274;28;20042;-68
2022/09/09 23:05:24;;;;;;;12.48;5.60;;;;;;;;;;10050833;28;20053;-68
2022/09/09 23:10:18;;;;;;;8.15;5.38;;;;;;;;;;10055894;28;20042;-68
2022/09/09 23:15:13;;;;;;;22.17;6.63;;;;;;;;;;10056697;28;20049;-68
2022/09/09 23:20:11;;;;;;;15.73;8.18;;;;;;;;;;10058657;28;20049;-68
2022/09/09 23:25:08;;;;;;;11.95;7.07;;;;;;;;;;10068304;28;20050;-68
2022/09/09 23:30:01;;;;;;;10.40;7.50;;;;;;;;;;10066931;28;20520;-68
2022/09/09 23:34:54;;;;;;;11.13;7.35;;;;;;;;;;10072898;28;20049;-68
2022/09/09 23:39:48;;;;;;;13.50;8.30;;;;;;;;;;10063267;28;20049;-68
2022/09/09 23:44:42;;;;;;;12.55;6.55;;;;;;;;;;10066719;28;20091;-68
2022/09/09 23:49:38;;;;;;;10.80;6.93;;;;;;;;;;10053331;28;20503;-68
2022/09/09 23:54:35;;;;;;;9.73;6.65;;;;;;;;;;10069529;28;20385;-68
2022/09/09 23:59:33;;;;;;;7.65;6.32;;;;;;;;;;10052054;28;20068;-68
